Airfield :
LOGIN :

Register | Disclaimer

   EN    FR    IT 

 










Legend :    VFR   Marginal VFR   IFR   Intensive IFR   Very Intensive IFR
Visi :
Ceiling :
>= 8 km
>= 3000ft
5 to 8 km
1000 to 3000 ft
1500m to 5 km
500 to 1000 ft
800 to 1500m
200 to 500 ft
< 800m
< 200 ft
Symbols :   Thunderstorms  Fog  Heavy snow  Heavy precipitations  Wind > 20 kt
SIGMETs :     Misc.  Thunderstorms  Icing  Turbulence  Mountain Waves  Volcanic Ashes






- Airport Elevation : 348 ft
- IATA code : STN


EGSS - London Stansted

CURRENT METAR :
  • 060620Z AUTO 19008KT 9999 FEW020 12/08 Q1012

EXPIRED METARs :
  • 060550Z AUTO 19010KT 9999 NCD 12/07 Q1011
  • 060520Z AUTO 17008KT 9999 NCD 11/07 Q1011
  • 060450Z AUTO 17009KT 9999 NCD 11/06 Q1011
  • 060420Z AUTO 16008KT 9999 NCD 12/06 Q1011
  • 060350Z AUTO 15007KT 9999 NCD 11/05 Q1011

TAF TAF EGSS
Valid from the 06 at 06:00 until the 07 at 12:00 UTC


060459Z 0606/0712 17012KT 9999 SCT025
BECMG 0606/0609 24010KT
TEMPO 0606/0609 7000 -RADZ BKN010
PROB30
TEMPO 0606/0608 3000 RADZ BKN005
PROB30
TEMPO 0610/0618 8000 -SHRA
BECMG 0618/0621 VRB04KT
ATIS : +44 1279 669 325



MET'MAP, your aeronautical weather chart ! - Copyright ORBIFLY December 2007 - Disclaimer

ORBIFLY MET'MAP TEAM :

Programming & Development : Alexandra Zaïnal
Concept & original design : Baudouin d'Aumeries
Assistance for programming : Marc-Olivier Méhu
Technical & hardware support : Manuel Goepfert

Contact : metmap@orbifly.com




SOURCES & CREDITS :

   NOAA